createdAt,value
2019-05-10T00:01:33.411Z,13.87
2019-05-10T00:04:22.862Z,14.47
2019-05-10T00:07:12.207Z,14.10
2019-05-10T00:09:43.058Z,14.60
2019-05-10T00:12:26.178Z,14.07
2019-05-10T00:14:58.479Z,14.27
2019-05-10T00:17:31.466Z,13.17
2019-05-10T00:20:03.948Z,13.70
2019-05-10T00:22:36.175Z,14.30
2019-05-10T00:25:09.624Z,11.67
2019-05-10T00:27:41.670Z,10.40
2019-05-10T00:30:14.195Z,8.23
2019-05-10T00:32:46.312Z,8.67
2019-05-10T00:35:18.308Z,9.03
2019-05-10T00:37:50.345Z,8.73
2019-05-10T00:40:22.551Z,7.80
2019-05-10T00:42:54.568Z,6.57
2019-05-10T00:45:26.583Z,5.97
2019-05-10T00:47:58.636Z,5.40
2019-05-10T00:50:30.728Z,4.70
2019-05-10T00:53:03.106Z,4.20
2019-05-10T00:55:35.207Z,3.80
2019-05-10T00:58:07.385Z,4.00
2019-05-10T01:00:39.786Z,4.40
2019-05-10T01:03:12.180Z,6.33
2019-05-10T01:05:44.287Z,7.57
2019-05-10T01:08:16.342Z,10.67
2019-05-10T01:10:48.717Z,12.73
2019-05-10T01:13:20.878Z,11.83
2019-05-10T01:15:52.960Z,11.87
2019-05-10T01:18:25.630Z,12.30
2019-05-10T01:20:57.693Z,12.03
2019-05-10T01:23:29.802Z,10.77
2019-05-10T01:26:01.952Z,12.90
2019-05-10T01:28:34.075Z,10.63
2019-05-10T01:31:06.102Z,6.73
2019-05-10T01:33:38.552Z,5.20
2019-05-10T01:36:10.565Z,4.00
2019-05-10T01:38:42.637Z,3.50
2019-05-10T01:41:14.723Z,3.30
2019-05-10T01:43:46.784Z,3.20
2019-05-10T01:46:18.771Z,3.07
2019-05-10T01:48:50.962Z,3.20
2019-05-10T01:51:23.285Z,2.63
2019-05-10T01:53:55.430Z,2.70
2019-05-10T01:56:27.514Z,13.87
2019-05-10T01:58:59.620Z,16.70
2019-05-10T02:01:31.669Z,17.00
2019-05-10T02:04:03.942Z,23.13
2019-05-10T02:06:36.102Z,21.37
2019-05-10T02:09:09.840Z,20.77
2019-05-10T02:11:41.872Z,22.27
2019-05-10T02:14:13.926Z,23.40
2019-05-10T02:16:45.924Z,22.80
2019-05-10T02:19:18.058Z,20.60
2019-05-10T02:21:50.075Z,20.80
2019-05-10T02:24:22.491Z,20.93
2019-05-10T02:26:54.528Z,21.80
2019-05-10T02:29:26.669Z,23.27
2019-05-10T02:31:58.715Z,22.23
2019-05-10T02:34:30.813Z,21.90
2019-05-10T02:37:02.850Z,21.93
2019-05-10T02:39:34.908Z,20.77
2019-05-10T02:42:07.334Z,19.37
2019-05-10T02:44:39.480Z,20.43
2019-05-10T02:47:11.525Z,20.30
2019-05-10T02:49:43.668Z,18.40
2019-05-10T02:52:16.072Z,18.20
2019-05-10T02:54:48.532Z,18.20
2019-05-10T02:57:22.195Z,18.13
2019-05-10T02:59:55.438Z,17.57
2019-05-10T03:02:29.023Z,18.10
2019-05-10T03:05:03.398Z,17.23
2019-05-10T03:07:39.474Z,18.10
2019-05-10T03:10:13.595Z,17.20
2019-05-10T03:12:47.498Z,17.23
2019-05-10T03:15:19.944Z,17.73
2019-05-10T03:17:56.453Z,17.00
2019-05-10T03:20:32.480Z,18.43
2019-05-10T03:23:07.275Z,17.73
2019-05-10T03:25:39.382Z,18.07
2019-05-10T03:28:11.475Z,17.07
2019-05-10T03:30:43.622Z,17.67
2019-05-10T03:33:15.869Z,17.27
2019-05-10T03:35:48.206Z,17.37
2019-05-10T03:38:20.526Z,17.77
2019-05-10T03:40:52.616Z,18.20
2019-05-10T03:43:24.749Z,18.63
2019-05-10T03:45:56.779Z,19.37
2019-05-10T03:48:28.988Z,20.37
2019-05-10T03:51:01.047Z,20.07
2019-05-10T03:53:33.173Z,23.27
2019-05-10T03:56:05.399Z,28.83
2019-05-10T03:58:37.521Z,27.90
2019-05-10T04:01:10.267Z,28.20
2019-05-10T04:03:42.638Z,24.40
2019-05-10T04:06:15.361Z,23.60
2019-05-10T04:08:47.589Z,21.63
2019-05-10T04:11:19.986Z,21.10
2019-05-10T04:13:52.069Z,18.73
2019-05-10T04:16:24.241Z,19.93
2019-05-10T04:18:56.470Z,19.90
2019-05-10T04:21:28.821Z,17.00
2019-05-10T04:24:00.874Z,9.93
2019-05-10T04:26:33.587Z,10.97
2019-05-10T04:29:06.158Z,7.07
2019-05-10T04:31:38.194Z,5.50
2019-05-10T04:34:10.218Z,6.80
2019-05-10T04:36:42.293Z,3.90
2019-05-10T04:39:14.783Z,5.03
2019-05-10T04:41:46.806Z,4.50
2019-05-10T04:44:18.849Z,2.50
2019-05-10T04:46:50.983Z,1.20
2019-05-10T04:49:23.102Z,1.70
2019-05-10T04:51:55.448Z,2.00
2019-05-10T04:54:27.556Z,1.47
2019-05-10T04:57:00.242Z,1.53
2019-05-10T04:59:32.421Z,1.00
2019-05-10T05:02:04.712Z,1.07
2019-05-10T05:04:36.899Z,1.33
2019-05-10T05:07:09.012Z,0.80
2019-05-10T05:09:41.143Z,1.07
2019-05-10T05:12:13.211Z,0.90
2019-05-10T05:14:45.953Z,0.93
2019-05-10T05:17:18.003Z,0.90
2019-05-10T05:19:50.122Z,0.90
2019-05-10T05:22:22.146Z,0.70
2019-05-10T05:24:55.249Z,2.03
2019-05-10T05:27:28.358Z,2.57
2019-05-10T05:30:00.415Z,1.47
2019-05-10T05:32:32.581Z,1.13
2019-05-10T05:35:04.764Z,1.30
2019-05-10T05:37:36.838Z,1.53
2019-05-10T05:40:10.055Z,1.33
2019-05-10T05:42:42.585Z,0.87
2019-05-10T05:45:15.556Z,1.20
2019-05-10T05:47:47.586Z,1.27
2019-05-10T05:50:19.782Z,1.20
2019-05-10T05:52:51.880Z,1.10
2019-05-10T05:55:23.910Z,1.00
2019-05-10T05:57:59.231Z,1.10
2019-05-10T06:00:30.133Z,20.17
2019-05-10T06:03:02.734Z,129.67
2019-05-10T06:05:37.249Z,125.60
2019-05-10T06:08:21.566Z,113.87
2019-05-10T06:10:44.160Z,56.30
2019-05-10T06:13:16.408Z,15.90
2019-05-10T06:15:48.886Z,18.87
2019-05-10T06:18:21.487Z,27.65
2019-05-10T06:20:53.502Z,27.80
2019-05-10T06:23:29.190Z,14.93
2019-05-10T06:25:59.287Z,9.45
2019-05-10T06:28:56.836Z,8.10
2019-05-10T06:31:06.376Z,11.65
2019-05-10T06:33:39.744Z,4.72
2019-05-10T06:36:12.157Z,6.67
2019-05-10T06:38:44.475Z,3.40
2019-05-10T06:41:17.438Z,3.02
2019-05-10T06:43:51.467Z,2.93
2019-05-10T06:46:29.796Z,1.53
2019-05-10T06:49:07.240Z,2.72
2019-05-10T06:51:32.400Z,1.63
2019-05-10T06:54:04.740Z,0.90
2019-05-10T06:56:36.881Z,1.00
2019-05-10T06:59:13.294Z,1.07
2019-05-10T07:01:45.928Z,1.00
2019-05-10T07:04:17.237Z,1.10
2019-05-10T07:06:49.460Z,0.90
2019-05-10T07:09:21.645Z,0.90
2019-05-10T07:11:54.475Z,0.80
2019-05-10T07:14:27.333Z,1.10
2019-05-10T07:17:02.541Z,1.10
2019-05-10T07:19:34.819Z,0.80
2019-05-10T07:22:08.150Z,0.70
2019-05-10T07:24:40.727Z,0.80
2019-05-10T07:27:13.111Z,0.80
2019-05-10T07:29:46.381Z,2.60
2019-05-10T07:32:22.059Z,0.80
2019-05-10T07:35:04.932Z,1.10
2019-05-10T07:37:51.736Z,1.40
2019-05-10T07:40:23.348Z,1.10
2019-05-10T07:42:55.919Z,1.00
2019-05-10T07:45:28.492Z,1.40
2019-05-10T07:48:02.358Z,1.60
2019-05-10T07:50:35.462Z,0.90
2019-05-10T07:53:07.760Z,2.47
2019-05-10T07:55:40.743Z,0.50
2019-05-10T07:58:13.190Z,0.83
2019-05-10T08:00:46.737Z,1.00
2019-05-10T08:03:23.621Z,0.90
2019-05-10T08:05:56.999Z,0.77
2019-05-10T08:08:29.636Z,0.60
2019-05-10T08:11:02.146Z,1.23
2019-05-10T08:13:35.059Z,0.80
2019-05-10T08:16:13.514Z,1.03
2019-05-10T08:18:42.504Z,1.40
2019-05-10T08:21:21.738Z,1.60
2019-05-10T08:23:52.170Z,0.83
2019-05-10T08:26:24.960Z,0.80
2019-05-10T08:28:57.499Z,0.47
2019-05-10T08:31:33.877Z,0.80
2019-05-10T08:34:04.593Z,2.00
2019-05-10T08:36:42.674Z,1.00
2019-05-10T08:39:13.998Z,0.82
2019-05-10T08:41:49.153Z,0.87
2019-05-10T08:44:21.749Z,0.40
2019-05-10T08:46:54.703Z,0.60
2019-05-10T08:49:35.481Z,1.37
2019-05-10T08:52:02.885Z,0.70
2019-05-10T08:54:35.558Z,0.80
2019-05-10T09:00:06.473Z,0.93
2019-05-10T09:02:32.896Z,0.80
2019-05-10T09:05:06.048Z,0.80
2019-05-10T09:07:39.104Z,0.90
2019-05-10T09:10:12.986Z,0.80
2019-05-10T09:12:50.856Z,0.80
2019-05-10T09:15:22.342Z,0.80
2019-05-10T09:17:58.310Z,0.70
2019-05-10T09:20:28.709Z,1.97
2019-05-10T09:23:02.414Z,0.93
2019-05-10T09:25:35.307Z,0.90
2019-05-10T09:28:11.551Z,0.93
2019-05-10T09:30:56.274Z,0.50
2019-05-10T09:33:16.269Z,1.00
2019-05-10T09:35:52.382Z,0.90
2019-05-10T09:38:23.073Z,0.60
2019-05-10T09:40:56.414Z,0.55
2019-05-10T09:43:29.196Z,0.50
2019-05-10T09:46:02.667Z,3.25
2019-05-10T09:48:35.570Z,2.02
2019-05-10T09:51:07.945Z,0.80
2019-05-10T09:53:40.356Z,0.60
2019-05-10T09:56:13.423Z,0.85
2019-05-10T09:58:48.058Z,0.55
2019-05-10T10:01:21.724Z,0.37
2019-05-10T10:03:54.346Z,0.60
2019-05-10T10:06:29.487Z,0.50
2019-05-10T10:09:11.102Z,0.50
2019-05-10T10:11:48.142Z,0.70
2019-05-10T10:14:18.045Z,0.40
2019-05-10T10:16:58.217Z,0.50
2019-05-10T10:19:40.864Z,0.35
2019-05-10T10:22:13.551Z,0.40
2019-05-10T10:24:48.911Z,0.47
2019-05-10T10:27:20.485Z,0.40
2019-05-10T10:29:52.897Z,0.60
2019-05-10T10:32:31.620Z,0.53
2019-05-10T10:34:59.549Z,0.50
2019-05-10T10:37:32.121Z,0.50
2019-05-10T10:40:07.930Z,0.35
2019-05-10T10:42:39.498Z,0.45
2019-05-10T10:45:12.964Z,0.70
2019-05-10T10:47:47.172Z,0.30
2019-05-10T10:50:21.154Z,0.30
2019-05-10T10:52:53.728Z,0.35
2019-05-10T10:55:30.530Z,0.37
2019-05-10T10:58:00.650Z,0.50
2019-05-10T11:00:38.747Z,0.40
2019-05-10T11:03:12.283Z,0.30
2019-05-10T11:05:45.758Z,0.80
2019-05-10T11:08:18.239Z,0.30
2019-05-10T11:10:51.648Z,0.30
2019-05-10T11:13:43.497Z,0.40
2019-05-10T11:16:09.854Z,0.40
2019-05-10T11:18:34.002Z,0.53
2019-05-10T11:21:06.467Z,0.30
2019-05-10T11:23:41.854Z,0.40
2019-05-10T11:26:13.915Z,1.37
2019-05-10T11:28:47.131Z,0.57
2019-05-10T11:31:21.405Z,0.30
2019-05-10T11:33:58.347Z,0.40
2019-05-10T11:36:28.479Z,0.30
2019-05-10T11:39:01.532Z,0.40
2019-05-10T11:41:34.419Z,0.50
2019-05-10T11:44:08.986Z,0.47
2019-05-10T11:46:41.728Z,0.42
2019-05-10T11:49:14.718Z,0.40
2019-05-10T11:51:47.905Z,0.60
2019-05-10T11:54:21.703Z,0.57
2019-05-10T11:59:04.538Z,0.80
2019-05-10T11:59:33.879Z,1.40
2019-05-10T12:02:03.567Z,0.90
2019-05-10T12:04:39.568Z,0.80
2019-05-10T12:07:12.839Z,1.50
2019-05-10T12:09:53.309Z,1.50
2019-05-10T12:12:29.683Z,1.50
2019-05-10T12:14:55.135Z,1.60
2019-05-10T12:17:27.505Z,3.70
2019-05-10T12:20:02.433Z,3.27
2019-05-10T12:22:38.295Z,4.15
2019-05-10T12:25:34.856Z,3.33
2019-05-10T12:27:48.689Z,3.35
2019-05-10T12:30:18.459Z,2.10
2019-05-10T12:32:56.307Z,1.15
2019-05-10T12:35:26.370Z,4.42
2019-05-10T12:38:01.620Z,1.95
2019-05-10T12:40:34.412Z,1.80
2019-05-10T12:43:06.941Z,0.80
2019-05-10T12:45:41.653Z,1.02
2019-05-10T12:48:13.808Z,0.80
2019-05-10T12:50:46.227Z,0.83
2019-05-10T12:53:21.323Z,1.00
2019-05-10T12:55:52.958Z,0.90
2019-05-10T12:58:38.508Z,1.00
2019-05-10T13:01:11.001Z,0.73
2019-05-10T13:03:43.972Z,0.70
2019-05-10T13:06:19.692Z,0.70
2019-05-10T13:08:50.883Z,0.80
2019-05-10T13:11:25.437Z,0.80
2019-05-10T13:14:01.068Z,0.60
2019-05-10T13:16:32.456Z,1.00
2019-05-10T13:19:05.021Z,0.70
2019-05-10T13:21:37.797Z,0.75
2019-05-10T13:24:10.427Z,1.10
2019-05-10T13:26:42.938Z,0.62
2019-05-10T13:29:15.563Z,0.68
2019-05-10T13:31:47.869Z,0.70
2019-05-10T13:34:23.911Z,0.40
2019-05-10T13:36:54.672Z,0.47
2019-05-10T13:39:27.747Z,0.60
2019-05-10T13:42:03.491Z,0.30
2019-05-10T13:44:37.093Z,0.30
2019-05-10T13:47:09.238Z,0.30
2019-05-10T13:49:41.668Z,0.40
2019-05-10T13:52:14.113Z,0.40
2019-05-10T13:54:46.511Z,0.40
2019-05-10T13:57:18.871Z,13.78
2019-05-10T13:59:55.236Z,8.00
2019-05-10T14:02:32.684Z,1.30
2019-05-10T14:04:59.947Z,0.40
2019-05-10T14:07:32.635Z,0.80
2019-05-10T14:10:05.616Z,0.50
2019-05-10T14:12:38.276Z,0.45
2019-05-10T14:15:13.768Z,0.50
2019-05-10T14:17:46.448Z,0.50
2019-05-10T14:20:24.547Z,0.30
2019-05-10T14:22:55.888Z,0.40
2019-05-10T14:25:29.710Z,0.50
2019-05-10T14:28:01.871Z,0.50
2019-05-10T14:30:34.515Z,0.50
2019-05-10T14:33:08.619Z,0.33
2019-05-10T14:35:41.441Z,0.40
2019-05-10T14:38:14.264Z,0.40
2019-05-10T14:41:10.872Z,0.50
2019-05-10T14:46:31.657Z,0.60
2019-05-10T14:49:09.788Z,0.57
2019-05-10T14:51:59.301Z,0.50
2019-05-10T14:54:43.229Z,10.40
2019-05-10T14:57:24.391Z,3.00
2019-05-10T14:59:57.031Z,0.93
2019-05-10T15:02:29.747Z,2.53
2019-05-10T15:05:02.248Z,1.57
2019-05-10T15:07:34.728Z,1.87
2019-05-10T15:10:07.466Z,1.30
2019-05-10T15:12:39.945Z,0.50
2019-05-10T15:15:12.775Z,10.85
2019-05-10T15:17:45.454Z,5.03
2019-05-10T15:20:18.626Z,0.70
2019-05-10T15:22:51.276Z,0.80
2019-05-10T15:25:24.002Z,3.62
2019-05-10T15:28:00.226Z,5.75
2019-05-10T15:30:31.533Z,8.90
2019-05-10T15:33:04.066Z,1.32
2019-05-10T15:35:36.596Z,0.60
2019-05-10T15:38:09.094Z,0.50
2019-05-10T15:40:44.424Z,0.40
2019-05-10T15:43:18.634Z,0.60
2019-05-10T15:45:54.977Z,0.50
2019-05-10T15:48:24.902Z,2.00
2019-05-10T15:50:57.846Z,0.90
2019-05-10T15:53:30.667Z,0.80
2019-05-10T15:56:03.934Z,0.93
2019-05-10T15:58:41.628Z,0.70
2019-05-10T16:01:14.105Z,0.80
2019-05-10T16:03:46.341Z,0.90
2019-05-10T16:06:19.286Z,1.10
2019-05-10T16:08:52.052Z,0.90
2019-05-10T16:11:24.578Z,0.60
2019-05-10T16:14:00.161Z,0.60
2019-05-10T16:16:37.362Z,3.55
2019-05-10T16:19:05.553Z,15.07
2019-05-10T16:21:38.360Z,4.10
2019-05-10T16:24:13.516Z,1.93
2019-05-10T16:26:45.108Z,2.10
2019-05-10T16:29:17.638Z,11.10
2019-05-10T16:31:50.151Z,3.80
2019-05-10T16:34:26.464Z,3.77
2019-05-10T16:36:57.215Z,2.33
2019-05-10T16:39:29.935Z,2.02
2019-05-10T16:42:02.570Z,1.13
2019-05-10T16:44:35.075Z,1.00
2019-05-10T16:47:07.658Z,1.20
2019-05-10T16:49:40.169Z,1.30
2019-05-10T16:52:13.020Z,1.27
2019-05-10T16:54:45.810Z,0.98
2019-05-10T16:57:18.754Z,3.37
2019-05-10T16:59:51.436Z,2.33
2019-05-10T17:02:23.927Z,1.00
2019-05-10T17:04:56.626Z,0.60
2019-05-10T17:07:29.248Z,1.50
2019-05-10T17:10:02.060Z,0.70
2019-05-10T17:12:34.624Z,0.90
2019-05-10T17:15:07.499Z,0.90
2019-05-10T17:17:40.122Z,0.65
2019-05-10T17:20:15.882Z,0.57
2019-05-10T17:22:47.272Z,0.70
2019-05-10T17:25:22.595Z,0.60
2019-05-10T17:27:57.499Z,0.80
2019-05-10T17:30:29.524Z,0.87
2019-05-10T17:33:03.983Z,0.80
2019-05-10T17:35:41.450Z,1.30
2019-05-10T17:38:14.223Z,1.30
2019-05-10T17:40:47.949Z,5.60
2019-05-10T17:43:20.800Z,5.33
2019-05-10T17:45:53.367Z,16.50
2019-05-10T17:48:26.285Z,5.50
2019-05-10T17:50:59.250Z,8.37
2019-05-10T17:53:32.055Z,3.60
2019-05-10T17:56:04.728Z,2.10
2019-05-10T17:58:37.360Z,13.63
2019-05-10T18:01:09.948Z,2.10
2019-05-10T18:03:42.928Z,1.07
2019-05-10T18:06:23.441Z,2.27
2019-05-10T18:08:49.750Z,1.57
2019-05-10T18:11:22.564Z,1.37
2019-05-10T18:13:55.147Z,1.27
2019-05-10T18:16:27.758Z,2.53
2019-05-10T18:19:00.504Z,9.50
2019-05-10T18:21:32.884Z,6.43
2019-05-10T18:24:05.826Z,2.53
2019-05-10T18:26:39.542Z,1.10
2019-05-10T18:29:12.423Z,1.30
2019-05-10T18:31:54.506Z,1.43
2019-05-10T18:34:19.234Z,2.07
2019-05-10T18:36:52.231Z,2.10
2019-05-10T18:39:25.259Z,3.77
2019-05-10T18:41:57.680Z,10.50
2019-05-10T18:44:30.139Z,13.23
2019-05-10T18:47:02.640Z,7.80
2019-05-10T18:49:35.321Z,11.90
2019-05-10T18:52:07.967Z,16.40
2019-05-10T18:54:40.591Z,10.73
2019-05-10T18:57:18.765Z,5.77
2019-05-10T18:59:47.411Z,1.63
2019-05-10T19:02:20.182Z,2.43
2019-05-10T19:04:54.264Z,15.00
2019-05-10T19:07:27.283Z,12.00
2019-05-10T19:09:59.654Z,12.97
2019-05-10T19:12:32.705Z,5.53
2019-05-10T19:15:10.198Z,2.40
2019-05-10T19:17:45.637Z,1.80
2019-05-10T19:20:16.370Z,7.53
2019-05-10T19:22:49.545Z,15.10
2019-05-10T19:25:22.231Z,13.67
2019-05-10T19:27:55.529Z,7.37
2019-05-10T19:30:28.501Z,10.70
2019-05-10T19:33:01.077Z,6.93
2019-05-10T19:35:45.770Z,8.97
2019-05-10T19:38:18.519Z,3.77
2019-05-10T19:40:51.244Z,7.13
2019-05-10T19:43:23.953Z,13.83
2019-05-10T19:45:57.838Z,15.23
2019-05-10T19:48:35.669Z,3.47
2019-05-10T19:51:09.763Z,5.60
2019-05-10T19:53:42.140Z,5.70
2019-05-10T19:56:14.311Z,1.00
2019-05-10T19:58:49.165Z,1.20
2019-05-10T20:01:21.545Z,1.13
2019-05-10T20:03:54.109Z,1.20
2019-05-10T20:06:26.794Z,1.40
2019-05-10T20:08:59.752Z,1.10
2019-05-10T20:11:32.151Z,0.80
2019-05-10T20:14:07.412Z,1.40
2019-05-10T20:16:52.053Z,1.30
2019-05-10T20:19:12.981Z,1.50
2019-05-10T20:21:45.441Z,1.17
2019-05-10T20:24:18.137Z,1.63
2019-05-10T20:26:50.869Z,1.37
2019-05-10T20:29:23.371Z,1.10
2019-05-10T20:31:56.068Z,1.33
2019-05-10T20:34:28.726Z,1.07
2019-05-10T20:37:01.436Z,1.20
2019-05-10T20:39:34.386Z,1.30
2019-05-10T20:42:07.270Z,1.00
2019-05-10T20:44:39.747Z,3.17
2019-05-10T20:47:12.216Z,0.90
2019-05-10T20:49:44.825Z,3.20
2019-05-10T20:52:17.374Z,1.20
2019-05-10T20:54:50.374Z,1.00
2019-05-10T20:57:23.411Z,0.80
2019-05-10T20:59:55.978Z,1.30
2019-05-10T21:02:28.591Z,0.97
2019-05-10T21:05:01.003Z,0.93
2019-05-10T21:07:33.777Z,1.00
2019-05-10T21:10:06.877Z,5.87
2019-05-10T21:12:39.521Z,11.60
2019-05-10T21:15:12.277Z,5.80
2019-05-10T21:17:45.024Z,3.37
2019-05-10T21:20:18.349Z,6.03
2019-05-10T21:22:51.209Z,1.10
2019-05-10T21:25:24.013Z,4.90
2019-05-10T21:27:56.584Z,1.10
2019-05-10T21:30:29.288Z,5.00
2019-05-10T21:33:01.776Z,1.00
2019-05-10T21:35:34.421Z,1.00
2019-05-10T21:38:07.873Z,0.90
2019-05-10T21:40:41.284Z,1.03
2019-05-10T21:43:13.933Z,1.00
2019-05-10T21:45:46.866Z,1.00
2019-05-10T21:48:19.501Z,0.60
2019-05-10T21:50:52.006Z,1.00
2019-05-10T21:53:25.019Z,0.90
2019-05-10T21:55:57.784Z,1.20
2019-05-10T21:58:30.521Z,0.97
2019-05-10T22:01:03.446Z,0.90
2019-05-10T22:03:36.194Z,0.80
2019-05-10T22:06:08.958Z,0.80
2019-05-10T22:08:49.420Z,0.87
2019-05-10T22:11:16.237Z,0.77
2019-05-10T22:13:48.813Z,0.83
2019-05-10T22:16:40.016Z,0.70
2019-05-10T22:19:12.668Z,0.60
2019-05-10T22:21:45.342Z,1.00
2019-05-10T22:24:18.265Z,0.60
2019-05-10T22:26:50.776Z,0.87
2019-05-10T22:29:23.719Z,0.80
2019-05-10T22:31:56.358Z,0.80
2019-05-10T22:34:29.076Z,1.10
2019-05-10T22:37:01.913Z,0.87
2019-05-10T22:39:34.326Z,1.00
2019-05-10T22:42:06.815Z,0.73
2019-05-10T22:44:39.684Z,1.00
2019-05-10T22:47:12.365Z,0.80
2019-05-10T22:49:45.349Z,0.80
2019-05-10T22:52:17.951Z,0.70
2019-05-10T22:54:50.529Z,0.90
2019-05-10T22:57:23.022Z,0.83
2019-05-10T22:59:55.462Z,1.10
2019-05-10T23:02:27.851Z,1.00
2019-05-10T23:05:00.474Z,1.10
2019-05-10T23:07:33.247Z,1.10
2019-05-10T23:10:06.182Z,0.90
2019-05-10T23:12:38.687Z,0.90
2019-05-10T23:15:11.245Z,0.80
2019-05-10T23:17:43.538Z,0.90
2019-05-10T23:20:16.839Z,0.90
2019-05-10T23:22:49.861Z,1.00
2019-05-10T23:25:22.332Z,1.07
2019-05-10T23:27:54.979Z,1.00
2019-05-10T23:30:27.411Z,0.80
2019-05-10T23:32:59.938Z,1.03
2019-05-10T23:35:32.343Z,1.00
2019-05-10T23:38:04.824Z,1.20
2019-05-10T23:40:37.216Z,1.00
2019-05-10T23:43:09.872Z,1.00
2019-05-10T23:45:42.545Z,1.17
2019-05-10T23:48:15.335Z,1.13
2019-05-10T23:50:47.811Z,1.10
2019-05-10T23:53:20.626Z,1.00
2019-05-10T23:55:53.089Z,1.20
2019-05-10T23:58:25.525Z,1.13
